sensor_id;sensor_type;location;lat;lon;timestamp;P1;durP1;ratioP1;P2;durP2;ratioP2
16199;SDS011;8207;52.494;4.654;2024-02-21T00:01:46;38.55;;;6.57;;
16199;SDS011;8207;52.494;4.654;2024-02-21T00:04:11;38.30;;;6.53;;
16199;SDS011;8207;52.494;4.654;2024-02-21T00:06:37;35.10;;;7.55;;
16199;SDS011;8207;52.494;4.654;2024-02-21T00:09:02;37.38;;;6.72;;
16199;SDS011;8207;52.494;4.654;2024-02-21T00:11:28;39.03;;;6.78;;
16199;SDS011;8207;52.494;4.654;2024-02-21T00:13:53;34.88;;;7.65;;
16199;SDS011;8207;52.494;4.654;2024-02-21T00:16:18;39.30;;;7.63;;
16199;SDS011;8207;52.494;4.654;2024-02-21T00:18:45;46.88;;;9.45;;
16199;SDS011;8207;52.494;4.654;2024-02-21T00:21:10;41.58;;;7.57;;
16199;SDS011;8207;52.494;4.654;2024-02-21T00:23:42;43.25;;;7.55;;
16199;SDS011;8207;52.494;4.654;2024-02-21T00:26:08;36.90;;;7.15;;
16199;SDS011;8207;52.494;4.654;2024-02-21T00:28:33;42.47;;;7.75;;
16199;SDS011;8207;52.494;4.654;2024-02-21T00:30:59;35.20;;;6.75;;
16199;SDS011;8207;52.494;4.654;2024-02-21T00:33:24;41.25;;;6.25;;
16199;SDS011;8207;52.494;4.654;2024-02-21T00:35:49;38.65;;;6.75;;
16199;SDS011;8207;52.494;4.654;2024-02-21T00:38:15;39.28;;;6.32;;
16199;SDS011;8207;52.494;4.654;2024-02-21T00:40:40;30.45;;;5.88;;
16199;SDS011;8207;52.494;4.654;2024-02-21T00:43:06;37.60;;;6.93;;
16199;SDS011;8207;52.494;4.654;2024-02-21T00:45:32;44.22;;;5.63;;
16199;SDS011;8207;52.494;4.654;2024-02-21T00:47:58;38.90;;;5.97;;
16199;SDS011;8207;52.494;4.654;2024-02-21T00:50:23;34.95;;;5.35;;
16199;SDS011;8207;52.494;4.654;2024-02-21T00:52:48;36.33;;;5.45;;
16199;SDS011;8207;52.494;4.654;2024-02-21T00:55:14;30.23;;;5.60;;
16199;SDS011;8207;52.494;4.654;2024-02-21T00:57:39;35.13;;;5.35;;
16199;SDS011;8207;52.494;4.654;2024-02-21T01:00:04;37.95;;;5.90;;
16199;SDS011;8207;52.494;4.654;2024-02-21T01:02:30;38.05;;;5.63;;
16199;SDS011;8207;52.494;4.654;2024-02-21T01:04:58;34.90;;;5.78;;
16199;SDS011;8207;52.494;4.654;2024-02-21T01:07:24;42.22;;;7.07;;
16199;SDS011;8207;52.494;4.654;2024-02-21T01:09:49;42.53;;;7.30;;
16199;SDS011;8207;52.494;4.654;2024-02-21T01:12:16;34.63;;;6.97;;
16199;SDS011;8207;52.494;4.654;2024-02-21T01:14:41;39.47;;;8.45;;
16199;SDS011;8207;52.494;4.654;2024-02-21T01:17:07;34.92;;;7.95;;
16199;SDS011;8207;52.494;4.654;2024-02-21T01:19:32;35.28;;;6.05;;
16199;SDS011;8207;52.494;4.654;2024-02-21T01:21:58;39.63;;;6.97;;
16199;SDS011;8207;52.494;4.654;2024-02-21T01:24:23;42.63;;;7.10;;
16199;SDS011;8207;52.494;4.654;2024-02-21T01:26:49;42.97;;;7.45;;
16199;SDS011;8207;52.494;4.654;2024-02-21T01:29:14;38.13;;;6.38;;
16199;SDS011;8207;52.494;4.654;2024-02-21T01:31:40;36.30;;;6.88;;
16199;SDS011;8207;52.494;4.654;2024-02-21T01:34:05;36.38;;;6.05;;
16199;SDS011;8207;52.494;4.654;2024-02-21T01:36:30;38.83;;;6.30;;
16199;SDS011;8207;52.494;4.654;2024-02-21T01:38:56;35.78;;;5.40;;
16199;SDS011;8207;52.494;4.654;2024-02-21T01:41:21;41.63;;;6.10;;
16199;SDS011;8207;52.494;4.654;2024-02-21T01:43:46;31.33;;;5.93;;
16199;SDS011;8207;52.494;4.654;2024-02-21T01:46:12;38.13;;;6.70;;
16199;SDS011;8207;52.494;4.654;2024-02-21T01:48:37;35.22;;;5.43;;
16199;SDS011;8207;52.494;4.654;2024-02-21T01:51:03;30.90;;;5.03;;
16199;SDS011;8207;52.494;4.654;2024-02-21T01:53:30;32.72;;;4.85;;
16199;SDS011;8207;52.494;4.654;2024-02-21T01:55:58;34.55;;;5.63;;
16199;SDS011;8207;52.494;4.654;2024-02-21T01:58:24;36.75;;;5.82;;
16199;SDS011;8207;52.494;4.654;2024-02-21T02:00:50;37.60;;;5.38;;
16199;SDS011;8207;52.494;4.654;2024-02-21T02:03:15;43.20;;;5.68;;
16199;SDS011;8207;52.494;4.654;2024-02-21T02:05:48;33.15;;;5.72;;
16199;SDS011;8207;52.494;4.654;2024-02-21T02:08:14;36.92;;;5.50;;
16199;SDS011;8207;52.494;4.654;2024-02-21T02:10:41;33.47;;;5.55;;
16199;SDS011;8207;52.494;4.654;2024-02-21T02:13:07;37.78;;;6.10;;
16199;SDS011;8207;52.494;4.654;2024-02-21T02:15:42;32.50;;;5.15;;
16199;SDS011;8207;52.494;4.654;2024-02-21T02:18:14;33.78;;;5.47;;
16199;SDS011;8207;52.494;4.654;2024-02-21T02:20:42;39.78;;;5.82;;
16199;SDS011;8207;52.494;4.654;2024-02-21T02:25:50;32.45;;;5.07;;
16199;SDS011;8207;52.494;4.654;2024-02-21T02:28:17;39.78;;;5.22;;
16199;SDS011;8207;52.494;4.654;2024-02-21T02:30:43;37.50;;;5.97;;
16199;SDS011;8207;52.494;4.654;2024-02-21T02:33:08;33.60;;;6.63;;
16199;SDS011;8207;52.494;4.654;2024-02-21T02:35:34;39.75;;;7.18;;
16199;SDS011;8207;52.494;4.654;2024-02-21T02:38:01;37.25;;;6.60;;
16199;SDS011;8207;52.494;4.654;2024-02-21T02:40:27;32.58;;;6.28;;
16199;SDS011;8207;52.494;4.654;2024-02-21T02:42:52;37.15;;;6.00;;
16199;SDS011;8207;52.494;4.654;2024-02-21T02:45:20;37.15;;;4.57;;
16199;SDS011;8207;52.494;4.654;2024-02-21T02:47:48;35.83;;;5.32;;
16199;SDS011;8207;52.494;4.654;2024-02-21T02:50:13;41.92;;;5.45;;
16199;SDS011;8207;52.494;4.654;2024-02-21T02:52:39;35.17;;;4.70;;
16199;SDS011;8207;52.494;4.654;2024-02-21T02:55:05;29.25;;;4.45;;
16199;SDS011;8207;52.494;4.654;2024-02-21T02:57:31;32.83;;;5.15;;
16199;SDS011;8207;52.494;4.654;2024-02-21T02:59:56;29.77;;;4.85;;
16199;SDS011;8207;52.494;4.654;2024-02-21T03:02:22;46.25;;;5.25;;
16199;SDS011;8207;52.494;4.654;2024-02-21T03:04:47;37.05;;;5.40;;
16199;SDS011;8207;52.494;4.654;2024-02-21T03:07:13;33.97;;;5.57;;
16199;SDS011;8207;52.494;4.654;2024-02-21T03:09:39;38.55;;;6.82;;
16199;SDS011;8207;52.494;4.654;2024-02-21T03:12:05;35.08;;;6.70;;
16199;SDS011;8207;52.494;4.654;2024-02-21T03:14:31;25.52;;;5.13;;
16199;SDS011;8207;52.494;4.654;2024-02-21T03:17:00;29.70;;;6.47;;
16199;SDS011;8207;52.494;4.654;2024-02-21T03:19:26;32.63;;;6.38;;
16199;SDS011;8207;52.494;4.654;2024-02-21T03:21:51;29.73;;;6.30;;
16199;SDS011;8207;52.494;4.654;2024-02-21T03:24:18;30.55;;;6.28;;
16199;SDS011;8207;52.494;4.654;2024-02-21T03:26:43;27.58;;;5.47;;
16199;SDS011;8207;52.494;4.654;2024-02-21T03:29:10;33.10;;;5.32;;
16199;SDS011;8207;52.494;4.654;2024-02-21T03:31:36;29.45;;;4.50;;
16199;SDS011;8207;52.494;4.654;2024-02-21T03:34:01;25.73;;;4.50;;
16199;SDS011;8207;52.494;4.654;2024-02-21T03:36:27;35.03;;;5.82;;
16199;SDS011;8207;52.494;4.654;2024-02-21T03:38:54;28.58;;;4.35;;
16199;SDS011;8207;52.494;4.654;2024-02-21T03:41:19;44.30;;;5.53;;
16199;SDS011;8207;52.494;4.654;2024-02-21T03:43:45;35.13;;;5.72;;
16199;SDS011;8207;52.494;4.654;2024-02-21T03:46:10;29.38;;;5.07;;
16199;SDS011;8207;52.494;4.654;2024-02-21T03:48:35;36.47;;;5.40;;
16199;SDS011;8207;52.494;4.654;2024-02-21T03:51:01;29.55;;;5.20;;
16199;SDS011;8207;52.494;4.654;2024-02-21T03:53:27;35.17;;;4.97;;
16199;SDS011;8207;52.494;4.654;2024-02-21T03:55:53;33.65;;;4.38;;
16199;SDS011;8207;52.494;4.654;2024-02-21T03:58:19;33.10;;;5.47;;
16199;SDS011;8207;52.494;4.654;2024-02-21T04:00:45;27.52;;;4.68;;
16199;SDS011;8207;52.494;4.654;2024-02-21T04:03:10;36.10;;;4.95;;
16199;SDS011;8207;52.494;4.654;2024-02-21T04:05:35;37.65;;;4.90;;
16199;SDS011;8207;52.494;4.654;2024-02-21T04:08:03;34.92;;;5.07;;
16199;SDS011;8207;52.494;4.654;2024-02-21T04:10:29;31.27;;;5.32;;
16199;SDS011;8207;52.494;4.654;2024-02-21T04:12:55;39.53;;;6.38;;
16199;SDS011;8207;52.494;4.654;2024-02-21T04:15:20;30.65;;;5.57;;
16199;SDS011;8207;52.494;4.654;2024-02-21T04:17:46;21.05;;;4.35;;
16199;SDS011;8207;52.494;4.654;2024-02-21T04:20:15;34.72;;;5.85;;
16199;SDS011;8207;52.494;4.654;2024-02-21T04:22:42;36.60;;;5.53;;
16199;SDS011;8207;52.494;4.654;2024-02-21T04:25:09;25.23;;;5.47;;
16199;SDS011;8207;52.494;4.654;2024-02-21T04:27:34;43.70;;;5.60;;
16199;SDS011;8207;52.494;4.654;2024-02-21T04:29:59;27.67;;;5.03;;
16199;SDS011;8207;52.494;4.654;2024-02-21T04:32:25;27.58;;;4.80;;
16199;SDS011;8207;52.494;4.654;2024-02-21T04:34:52;31.58;;;4.88;;
16199;SDS011;8207;52.494;4.654;2024-02-21T04:37:17;29.17;;;5.45;;
16199;SDS011;8207;52.494;4.654;2024-02-21T04:39:43;34.17;;;5.25;;
16199;SDS011;8207;52.494;4.654;2024-02-21T04:42:09;31.70;;;5.82;;
16199;SDS011;8207;52.494;4.654;2024-02-21T04:44:34;36.33;;;6.72;;
16199;SDS011;8207;52.494;4.654;2024-02-21T04:46:59;28.42;;;5.00;;
16199;SDS011;8207;52.494;4.654;2024-02-21T04:49:25;32.08;;;6.63;;
16199;SDS011;8207;52.494;4.654;2024-02-21T04:51:51;26.60;;;5.07;;
16199;SDS011;8207;52.494;4.654;2024-02-21T04:54:16;31.90;;;5.60;;
16199;SDS011;8207;52.494;4.654;2024-02-21T04:56:42;27.95;;;4.82;;
16199;SDS011;8207;52.494;4.654;2024-02-21T04:59:07;27.83;;;5.15;;
16199;SDS011;8207;52.494;4.654;2024-02-21T05:01:32;26.98;;;5.07;;
16199;SDS011;8207;52.494;4.654;2024-02-21T05:03:58;30.38;;;5.45;;
16199;SDS011;8207;52.494;4.654;2024-02-21T05:06:23;31.88;;;5.28;;
16199;SDS011;8207;52.494;4.654;2024-02-21T05:08:48;25.58;;;5.35;;
16199;SDS011;8207;52.494;4.654;2024-02-21T05:11:14;28.00;;;4.95;;
16199;SDS011;8207;52.494;4.654;2024-02-21T05:13:39;25.77;;;4.93;;
16199;SDS011;8207;52.494;4.654;2024-02-21T05:16:05;21.65;;;4.45;;
16199;SDS011;8207;52.494;4.654;2024-02-21T05:18:31;21.92;;;4.45;;
16199;SDS011;8207;52.494;4.654;2024-02-21T05:20:56;25.60;;;5.70;;
16199;SDS011;8207;52.494;4.654;2024-02-21T05:23:22;24.65;;;4.68;;
16199;SDS011;8207;52.494;4.654;2024-02-21T05:25:47;20.58;;;4.80;;
16199;SDS011;8207;52.494;4.654;2024-02-21T05:28:12;21.25;;;4.82;;
16199;SDS011;8207;52.494;4.654;2024-02-21T05:30:37;29.48;;;4.88;;
16199;SDS011;8207;52.494;4.654;2024-02-21T05:33:04;26.77;;;5.30;;
16199;SDS011;8207;52.494;4.654;2024-02-21T05:35:33;22.77;;;5.50;;
16199;SDS011;8207;52.494;4.654;2024-02-21T05:37:59;33.47;;;6.18;;
16199;SDS011;8207;52.494;4.654;2024-02-21T05:40:25;25.65;;;5.55;;
16199;SDS011;8207;52.494;4.654;2024-02-21T05:42:50;30.35;;;6.00;;
16199;SDS011;8207;52.494;4.654;2024-02-21T05:45:16;25.58;;;6.15;;
16199;SDS011;8207;52.494;4.654;2024-02-21T05:47:42;22.38;;;6.45;;
16199;SDS011;8207;52.494;4.654;2024-02-21T05:50:08;25.48;;;5.80;;
16199;SDS011;8207;52.494;4.654;2024-02-21T05:52:34;19.52;;;5.57;;
16199;SDS011;8207;52.494;4.654;2024-02-21T05:54:59;25.25;;;6.32;;
16199;SDS011;8207;52.494;4.654;2024-02-21T05:57:25;20.40;;;5.68;;
16199;SDS011;8207;52.494;4.654;2024-02-21T05:59:50;22.40;;;6.03;;
16199;SDS011;8207;52.494;4.654;2024-02-21T06:02:15;26.38;;;6.13;;
16199;SDS011;8207;52.494;4.654;2024-02-21T06:04:41;20.63;;;6.15;;
16199;SDS011;8207;52.494;4.654;2024-02-21T06:07:09;20.13;;;6.15;;
16199;SDS011;8207;52.494;4.654;2024-02-21T06:09:34;19.00;;;6.68;;
16199;SDS011;8207;52.494;4.654;2024-02-21T06:12:00;23.98;;;7.22;;
16199;SDS011;8207;52.494;4.654;2024-02-21T06:14:25;24.60;;;7.00;;
16199;SDS011;8207;52.494;4.654;2024-02-21T06:16:50;20.38;;;7.28;;
16199;SDS011;8207;52.494;4.654;2024-02-21T06:19:16;23.17;;;7.32;;
16199;SDS011;8207;52.494;4.654;2024-02-21T06:21:41;23.55;;;7.07;;
16199;SDS011;8207;52.494;4.654;2024-02-21T06:24:07;35.53;;;7.60;;
16199;SDS011;8207;52.494;4.654;2024-02-21T06:26:32;22.15;;;6.80;;
16199;SDS011;8207;52.494;4.654;2024-02-21T06:28:57;19.00;;;6.82;;
16199;SDS011;8207;52.494;4.654;2024-02-21T06:31:24;22.08;;;7.00;;
16199;SDS011;8207;52.494;4.654;2024-02-21T06:33:50;18.40;;;7.00;;
16199;SDS011;8207;52.494;4.654;2024-02-21T06:36:15;19.98;;;6.70;;
16199;SDS011;8207;52.494;4.654;2024-02-21T06:38:40;19.70;;;6.72;;
16199;SDS011;8207;52.494;4.654;2024-02-21T06:41:06;18.88;;;6.50;;
16199;SDS011;8207;52.494;4.654;2024-02-21T06:43:39;23.13;;;7.00;;
16199;SDS011;8207;52.494;4.654;2024-02-21T06:46:04;22.13;;;7.50;;
16199;SDS011;8207;52.494;4.654;2024-02-21T06:48:29;22.55;;;7.25;;
16199;SDS011;8207;52.494;4.654;2024-02-21T06:50:55;18.15;;;7.22;;
16199;SDS011;8207;52.494;4.654;2024-02-21T06:53:20;22.48;;;7.50;;
16199;SDS011;8207;52.494;4.654;2024-02-21T06:55:46;20.70;;;7.45;;
16199;SDS011;8207;52.494;4.654;2024-02-21T06:58:12;22.15;;;8.00;;
16199;SDS011;8207;52.494;4.654;2024-02-21T07:00:38;19.27;;;8.27;;
16199;SDS011;8207;52.494;4.654;2024-02-21T07:03:05;21.35;;;8.77;;
16199;SDS011;8207;52.494;4.654;2024-02-21T07:05:30;26.13;;;9.70;;
16199;SDS011;8207;52.494;4.654;2024-02-21T07:07:55;24.15;;;8.85;;
16199;SDS011;8207;52.494;4.654;2024-02-21T07:10:21;19.20;;;8.32;;
16199;SDS011;8207;52.494;4.654;2024-02-21T07:12:46;19.27;;;9.15;;
16199;SDS011;8207;52.494;4.654;2024-02-21T07:15:12;21.65;;;9.38;;
16199;SDS011;8207;52.494;4.654;2024-02-21T07:17:37;27.20;;;9.50;;
16199;SDS011;8207;52.494;4.654;2024-02-21T07:20:02;21.45;;;9.65;;
16199;SDS011;8207;52.494;4.654;2024-02-21T07:22:28;19.85;;;9.68;;
16199;SDS011;8207;52.494;4.654;2024-02-21T07:24:53;20.77;;;9.57;;
16199;SDS011;8207;52.494;4.654;2024-02-21T07:27:18;20.13;;;9.93;;
16199;SDS011;8207;52.494;4.654;2024-02-21T07:29:44;22.40;;;10.57;;
16199;SDS011;8207;52.494;4.654;2024-02-21T07:32:12;25.88;;;9.82;;
16199;SDS011;8207;52.494;4.654;2024-02-21T07:34:38;21.08;;;9.52;;
16199;SDS011;8207;52.494;4.654;2024-02-21T07:37:03;21.65;;;10.20;;
16199;SDS011;8207;52.494;4.654;2024-02-21T07:39:28;23.20;;;10.13;;
16199;SDS011;8207;52.494;4.654;2024-02-21T07:41:54;20.17;;;9.80;;
16199;SDS011;8207;52.494;4.654;2024-02-21T07:44:19;22.88;;;9.45;;
16199;SDS011;8207;52.494;4.654;2024-02-21T07:46:44;24.63;;;9.55;;
16199;SDS011;8207;52.494;4.654;2024-02-21T07:49:09;21.65;;;10.27;;
16199;SDS011;8207;52.494;4.654;2024-02-21T07:51:35;19.02;;;9.50;;
16199;SDS011;8207;52.494;4.654;2024-02-21T07:54:01;21.00;;;9.55;;
16199;SDS011;8207;52.494;4.654;2024-02-21T07:56:27;21.13;;;9.77;;
16199;SDS011;8207;52.494;4.654;2024-02-21T07:58:54;19.35;;;9.65;;
16199;SDS011;8207;52.494;4.654;2024-02-21T08:01:19;19.48;;;10.63;;
16199;SDS011;8207;52.494;4.654;2024-02-21T08:03:47;21.52;;;10.23;;
16199;SDS011;8207;52.494;4.654;2024-02-21T08:06:13;19.30;;;10.45;;
16199;SDS011;8207;52.494;4.654;2024-02-21T08:08:38;20.50;;;10.80;;
16199;SDS011;8207;52.494;4.654;2024-02-21T08:11:04;21.08;;;10.50;;
16199;SDS011;8207;52.494;4.654;2024-02-21T08:13:30;19.75;;;10.43;;
16199;SDS011;8207;52.494;4.654;2024-02-21T08:15:56;19.90;;;9.85;;
16199;SDS011;8207;52.494;4.654;2024-02-21T08:18:22;21.88;;;10.63;;
16199;SDS011;8207;52.494;4.654;2024-02-21T08:20:47;18.98;;;10.20;;
16199;SDS011;8207;52.494;4.654;2024-02-21T08:23:15;18.60;;;10.65;;
16199;SDS011;8207;52.494;4.654;2024-02-21T08:25:42;20.52;;;10.40;;
16199;SDS011;8207;52.494;4.654;2024-02-21T08:28:07;19.13;;;10.30;;
16199;SDS011;8207;52.494;4.654;2024-02-21T08:30:33;22.20;;;11.18;;
16199;SDS011;8207;52.494;4.654;2024-02-21T08:32:59;21.48;;;10.85;;
16199;SDS011;8207;52.494;4.654;2024-02-21T08:35:24;25.20;;;11.77;;
16199;SDS011;8207;52.494;4.654;2024-02-21T08:37:49;20.40;;;11.65;;
16199;SDS011;8207;52.494;4.654;2024-02-21T08:40:15;18.58;;;11.43;;
16199;SDS011;8207;52.494;4.654;2024-02-21T08:42:44;20.35;;;12.27;;
16199;SDS011;8207;52.494;4.654;2024-02-21T08:45:10;18.77;;;11.68;;
16199;SDS011;8207;52.494;4.654;2024-02-21T08:47:35;16.88;;;12.00;;
16199;SDS011;8207;52.494;4.654;2024-02-21T08:50:01;22.15;;;13.65;;
16199;SDS011;8207;52.494;4.654;2024-02-21T08:52:27;22.55;;;13.98;;
16199;SDS011;8207;52.494;4.654;2024-02-21T08:54:53;22.60;;;14.82;;
16199;SDS011;8207;52.494;4.654;2024-02-21T08:57:18;25.23;;;14.00;;
16199;SDS011;8207;52.494;4.654;2024-02-21T08:59:44;24.75;;;14.95;;
16199;SDS011;8207;52.494;4.654;2024-02-21T09:02:10;21.02;;;14.55;;
16199;SDS011;8207;52.494;4.654;2024-02-21T09:04:35;21.65;;;13.90;;
16199;SDS011;8207;52.494;4.654;2024-02-21T09:07:00;20.45;;;13.98;;
16199;SDS011;8207;52.494;4.654;2024-02-21T09:09:26;23.27;;;13.65;;
16199;SDS011;8207;52.494;4.654;2024-02-21T09:11:53;20.77;;;13.93;;
16199;SDS011;8207;52.494;4.654;2024-02-21T09:14:18;22.73;;;13.02;;
16199;SDS011;8207;52.494;4.654;2024-02-21T09:16:44;20.17;;;12.35;;
16199;SDS011;8207;52.494;4.654;2024-02-21T09:19:09;20.40;;;12.93;;
16199;SDS011;8207;52.494;4.654;2024-02-21T09:21:36;21.13;;;12.80;;
16199;SDS011;8207;52.494;4.654;2024-02-21T09:24:02;20.35;;;12.07;;
16199;SDS011;8207;52.494;4.654;2024-02-21T09:26:27;20.65;;;12.45;;
16199;SDS011;8207;52.494;4.654;2024-02-21T09:28:53;21.90;;;11.77;;
16199;SDS011;8207;52.494;4.654;2024-02-21T09:31:19;18.58;;;11.75;;
16199;SDS011;8207;52.494;4.654;2024-02-21T09:33:44;17.80;;;11.98;;
16199;SDS011;8207;52.494;4.654;2024-02-21T09:36:10;19.65;;;12.57;;
16199;SDS011;8207;52.494;4.654;2024-02-21T09:38:35;19.13;;;12.13;;
16199;SDS011;8207;52.494;4.654;2024-02-21T09:41:22;20.65;;;12.93;;
16199;SDS011;8207;52.494;4.654;2024-02-21T09:43:49;22.98;;;14.02;;
16199;SDS011;8207;52.494;4.654;2024-02-21T09:46:18;25.08;;;14.40;;
16199;SDS011;8207;52.494;4.654;2024-02-21T09:51:41;27.00;;;16.27;;
16199;SDS011;8207;52.494;4.654;2024-02-21T09:54:09;28.45;;;16.33;;
16199;SDS011;8207;52.494;4.654;2024-02-21T09:56:35;26.38;;;16.02;;
16199;SDS011;8207;52.494;4.654;2024-02-21T09:59:01;25.20;;;17.35;;
16199;SDS011;8207;52.494;4.654;2024-02-21T10:01:30;26.05;;;17.40;;
16199;SDS011;8207;52.494;4.654;2024-02-21T10:03:56;27.48;;;17.65;;
16199;SDS011;8207;52.494;4.654;2024-02-21T10:06:22;26.73;;;17.38;;
16199;SDS011;8207;52.494;4.654;2024-02-21T10:08:54;27.55;;;16.95;;
16199;SDS011;8207;52.494;4.654;2024-02-21T10:11:23;28.40;;;17.65;;
16199;SDS011;8207;52.494;4.654;2024-02-21T10:13:49;27.35;;;18.25;;
16199;SDS011;8207;52.494;4.654;2024-02-21T10:16:14;26.35;;;17.10;;
16199;SDS011;8207;52.494;4.654;2024-02-21T10:18:40;25.55;;;16.80;;
16199;SDS011;8207;52.494;4.654;2024-02-21T10:21:06;25.52;;;17.38;;
16199;SDS011;8207;52.494;4.654;2024-02-21T10:23:42;23.52;;;16.67;;
16199;SDS011;8207;52.494;4.654;2024-02-21T10:26:11;23.05;;;15.85;;
16199;SDS011;8207;52.494;4.654;2024-02-21T10:28:37;24.40;;;16.02;;
16199;SDS011;8207;52.494;4.654;2024-02-21T10:31:07;24.10;;;16.40;;
16199;SDS011;8207;52.494;4.654;2024-02-21T10:33:37;22.65;;;16.25;;
16199;SDS011;8207;52.494;4.654;2024-02-21T10:36:09;20.63;;;15.13;;
16199;SDS011;8207;52.494;4.654;2024-02-21T10:38:38;26.25;;;17.10;;
16199;SDS011;8207;52.494;4.654;2024-02-21T10:41:05;20.55;;;15.27;;
16199;SDS011;8207;52.494;4.654;2024-02-21T10:43:37;23.70;;;15.35;;
16199;SDS011;8207;52.494;4.654;2024-02-21T10:46:08;22.85;;;15.38;;
16199;SDS011;8207;52.494;4.654;2024-02-21T10:48:44;23.98;;;15.43;;
16199;SDS011;8207;52.494;4.654;2024-02-21T10:51:17;23.92;;;14.95;;
16199;SDS011;8207;52.494;4.654;2024-02-21T10:59:00;19.92;;;14.52;;
16199;SDS011;8207;52.494;4.654;2024-02-21T11:01:28;21.25;;;14.13;;
16199;SDS011;8207;52.494;4.654;2024-02-21T11:03:56;22.25;;;13.95;;
16199;SDS011;8207;52.494;4.654;2024-02-21T11:06:23;21.17;;;14.30;;
16199;SDS011;8207;52.494;4.654;2024-02-21T11:11:39;21.08;;;12.98;;
16199;SDS011;8207;52.494;4.654;2024-02-21T11:14:06;18.65;;;13.73;;
16199;SDS011;8207;52.494;4.654;2024-02-21T11:16:45;23.60;;;13.25;;
16199;SDS011;8207;52.494;4.654;2024-02-21T11:19:20;19.25;;;13.38;;
16199;SDS011;8207;52.494;4.654;2024-02-21T11:21:47;20.10;;;13.98;;
16199;SDS011;8207;52.494;4.654;2024-02-21T11:24:13;20.10;;;14.18;;
16199;SDS011;8207;52.494;4.654;2024-02-21T11:26:39;21.00;;;14.13;;
16199;SDS011;8207;52.494;4.654;2024-02-21T11:29:07;20.65;;;14.65;;
16199;SDS011;8207;52.494;4.654;2024-02-21T11:31:41;19.35;;;14.70;;
16199;SDS011;8207;52.494;4.654;2024-02-21T11:34:11;19.93;;;14.93;;
16199;SDS011;8207;52.494;4.654;2024-02-21T11:36:46;19.10;;;14.55;;
16199;SDS011;8207;52.494;4.654;2024-02-21T11:39:17;19.05;;;15.00;;
16199;SDS011;8207;52.494;4.654;2024-02-21T11:42:00;19.60;;;14.48;;
16199;SDS011;8207;52.494;4.654;2024-02-21T11:44:26;18.17;;;14.10;;
16199;SDS011;8207;52.494;4.654;2024-02-21T11:46:51;20.45;;;13.32;;
16199;SDS011;8207;52.494;4.654;2024-02-21T11:49:17;18.05;;;13.48;;
16199;SDS011;8207;52.494;4.654;2024-02-21T11:51:42;21.38;;;14.88;;
16199;SDS011;8207;52.494;4.654;2024-02-21T11:54:07;20.98;;;14.52;;
16199;SDS011;8207;52.494;4.654;2024-02-21T11:56:34;17.83;;;13.55;;
16199;SDS011;8207;52.494;4.654;2024-02-21T11:59:00;20.27;;;14.05;;
16199;SDS011;8207;52.494;4.654;2024-02-21T12:01:25;19.45;;;14.02;;
16199;SDS011;8207;52.494;4.654;2024-02-21T12:03:50;18.23;;;13.73;;
16199;SDS011;8207;52.494;4.654;2024-02-21T12:06:16;20.52;;;14.45;;
16199;SDS011;8207;52.494;4.654;2024-02-21T12:08:46;17.85;;;13.23;;
16199;SDS011;8207;52.494;4.654;2024-02-21T12:11:21;20.27;;;13.77;;
16199;SDS011;8207;52.494;4.654;2024-02-21T12:13:57;17.10;;;12.63;;
16199;SDS011;8207;52.494;4.654;2024-02-21T12:16:25;15.75;;;12.85;;
16199;SDS011;8207;52.494;4.654;2024-02-21T12:18:52;18.02;;;12.73;;
16199;SDS011;8207;52.494;4.654;2024-02-21T12:21:31;16.92;;;12.85;;
16199;SDS011;8207;52.494;4.654;2024-02-21T12:24:11;20.80;;;12.90;;
16199;SDS011;8207;52.494;4.654;2024-02-21T12:26:38;17.30;;;13.80;;
16199;SDS011;8207;52.494;4.654;2024-02-21T12:29:03;17.63;;;11.50;;
16199;SDS011;8207;52.494;4.654;2024-02-21T12:31:28;16.80;;;12.35;;
16199;SDS011;8207;52.494;4.654;2024-02-21T12:33:54;14.48;;;10.60;;
16199;SDS011;8207;52.494;4.654;2024-02-21T12:36:19;14.18;;;11.52;;
16199;SDS011;8207;52.494;4.654;2024-02-21T12:38:44;15.85;;;11.40;;
16199;SDS011;8207;52.494;4.654;2024-02-21T12:41:11;16.25;;;11.50;;
16199;SDS011;8207;52.494;4.654;2024-02-21T12:43:37;13.82;;;11.10;;
16199;SDS011;8207;52.494;4.654;2024-02-21T12:46:03;14.05;;;10.77;;
16199;SDS011;8207;52.494;4.654;2024-02-21T12:48:28;16.00;;;10.98;;
16199;SDS011;8207;52.494;4.654;2024-02-21T12:50:54;11.95;;;10.50;;
16199;SDS011;8207;52.494;4.654;2024-02-21T12:53:19;16.98;;;10.88;;
16199;SDS011;8207;52.494;4.654;2024-02-21T12:55:46;15.07;;;10.75;;
16199;SDS011;8207;52.494;4.654;2024-02-21T12:58:13;15.63;;;10.00;;
16199;SDS011;8207;52.494;4.654;2024-02-21T13:00:39;13.30;;;9.82;;
16199;SDS011;8207;52.494;4.654;2024-02-21T13:03:05;12.93;;;9.50;;
16199;SDS011;8207;52.494;4.654;2024-02-21T13:05:30;14.90;;;10.50;;
16199;SDS011;8207;52.494;4.654;2024-02-21T13:07:57;14.63;;;9.75;;
16199;SDS011;8207;52.494;4.654;2024-02-21T13:10:23;12.38;;;9.13;;
16199;SDS011;8207;52.494;4.654;2024-02-21T13:12:48;13.25;;;8.65;;
16199;SDS011;8207;52.494;4.654;2024-02-21T13:15:14;11.02;;;7.88;;
16199;SDS011;8207;52.494;4.654;2024-02-21T13:17:41;10.93;;;8.52;;
16199;SDS011;8207;52.494;4.654;2024-02-21T13:20:06;11.77;;;8.30;;
16199;SDS011;8207;52.494;4.654;2024-02-21T13:22:33;11.48;;;7.22;;
16199;SDS011;8207;52.494;4.654;2024-02-21T13:24:59;9.50;;;6.53;;
16199;SDS011;8207;52.494;4.654;2024-02-21T13:27:25;10.20;;;7.15;;
16199;SDS011;8207;52.494;4.654;2024-02-21T13:29:51;10.63;;;6.80;;
16199;SDS011;8207;52.494;4.654;2024-02-21T13:32:17;8.82;;;6.53;;
16199;SDS011;8207;52.494;4.654;2024-02-21T13:34:43;12.00;;;7.03;;
16199;SDS011;8207;52.494;4.654;2024-02-21T13:37:08;10.82;;;7.47;;
16199;SDS011;8207;52.494;4.654;2024-02-21T13:39:35;9.23;;;6.80;;
16199;SDS011;8207;52.494;4.654;2024-02-21T13:42:01;9.60;;;7.18;;
16199;SDS011;8207;52.494;4.654;2024-02-21T13:44:27;10.00;;;6.72;;
16199;SDS011;8207;52.494;4.654;2024-02-21T13:46:52;9.43;;;7.35;;
16199;SDS011;8207;52.494;4.654;2024-02-21T13:49:18;10.57;;;7.55;;
16199;SDS011;8207;52.494;4.654;2024-02-21T13:51:43;11.30;;;7.60;;
16199;SDS011;8207;52.494;4.654;2024-02-21T13:54:10;12.25;;;7.90;;
16199;SDS011;8207;52.494;4.654;2024-02-21T13:56:36;9.75;;;7.22;;
16199;SDS011;8207;52.494;4.654;2024-02-21T13:59:02;10.60;;;8.10;;
16199;SDS011;8207;52.494;4.654;2024-02-21T14:01:28;11.02;;;8.60;;
16199;SDS011;8207;52.494;4.654;2024-02-21T14:03:54;13.52;;;9.68;;
16199;SDS011;8207;52.494;4.654;2024-02-21T14:06:19;15.25;;;10.10;;
16199;SDS011;8207;52.494;4.654;2024-02-21T14:08:45;14.57;;;11.10;;
16199;SDS011;8207;52.494;4.654;2024-02-21T14:11:10;18.38;;;12.43;;
16199;SDS011;8207;52.494;4.654;2024-02-21T14:13:35;16.05;;;12.32;;
16199;SDS011;8207;52.494;4.654;2024-02-21T14:16:01;19.13;;;13.43;;
16199;SDS011;8207;52.494;4.654;2024-02-21T14:18:26;18.65;;;13.05;;
16199;SDS011;8207;52.494;4.654;2024-02-21T14:20:52;19.35;;;13.93;;
16199;SDS011;8207;52.494;4.654;2024-02-21T14:23:17;20.00;;;14.43;;
16199;SDS011;8207;52.494;4.654;2024-02-21T14:25:43;17.92;;;13.70;;
16199;SDS011;8207;52.494;4.654;2024-02-21T14:28:08;19.73;;;14.63;;
16199;SDS011;8207;52.494;4.654;2024-02-21T14:30:36;19.95;;;14.02;;
16199;SDS011;8207;52.494;4.654;2024-02-21T14:33:02;20.80;;;13.77;;
16199;SDS011;8207;52.494;4.654;2024-02-21T14:35:27;20.55;;;13.80;;
16199;SDS011;8207;52.494;4.654;2024-02-21T14:37:53;19.98;;;13.20;;
16199;SDS011;8207;52.494;4.654;2024-02-21T14:40:20;20.00;;;13.82;;
16199;SDS011;8207;52.494;4.654;2024-02-21T14:42:46;20.63;;;13.98;;
16199;SDS011;8207;52.494;4.654;2024-02-21T14:45:12;21.35;;;14.38;;
16199;SDS011;8207;52.494;4.654;2024-02-21T14:47:38;19.85;;;13.63;;
16199;SDS011;8207;52.494;4.654;2024-02-21T14:50:04;21.05;;;14.00;;
16199;SDS011;8207;52.494;4.654;2024-02-21T14:52:30;19.75;;;12.80;;